Time;durP1;ratioP1;P1;durP2;ratioP2;P2;SDS_P1;SDS_P2;PMS_P1;PMS_P2;Temp;Humidity;BMP_temperature;BMP_pressure;BME280_temperature;BME280_humidity;BME280_pressure;Samples;Min_cycle;Max_cycle;Signal;HPM_P1;HPM_P2
2024/02/05 00:00:20;;;;;;;10.50;3.90;;;11.80;99.90;;;;;;5073990;28;20452;-55
2024/02/05 00:02:46;;;;;;;11.30;4.83;;;11.70;99.90;;;;;;5073857;28;20484;-55
2024/02/05 00:05:15;;;;;;;13.37;4.87;;;11.70;99.90;;;;;;5073659;28;21005;-55
2024/02/05 00:07:41;;;;;;;11.50;4.10;;;11.80;99.90;;;;;;5073018;28;20441;-55
2024/02/05 00:10:10;;;;;;;19.23;5.07;;;11.70;99.90;;;;;;5073744;28;20452;-55
2024/02/05 00:12:37;;;;;;;11.20;4.33;;;11.80;99.90;;;;;;5073928;28;20441;-55
2024/02/05 00:15:05;;;;;;;14.17;4.90;;;11.80;99.90;;;;;;5073701;28;20473;-55
2024/02/05 00:17:32;;;;;;;12.70;5.20;;;11.80;99.90;;;;;;5073645;28;20449;-55
2024/02/05 00:19:59;;;;;;;11.27;4.40;;;11.80;99.90;;;;;;5073657;28;20437;-55
2024/02/05 00:22:27;;;;;;;16.47;4.60;;;11.70;99.90;;;;;;5073289;28;20453;-55
2024/02/05 00:24:53;;;;;;;11.80;5.53;;;11.80;99.90;;;;;;5073673;28;20540;-55
2024/02/05 00:27:20;;;;;;;16.43;6.60;;;11.80;99.90;;;;;;5073782;28;20452;-55
2024/02/05 00:29:47;;;;;;;13.87;5.80;;;11.80;99.90;;;;;;5073465;28;20445;-55
2024/02/05 00:32:14;;;;;;;14.47;5.67;;;11.80;99.90;;;;;;5073735;28;20441;-55
2024/02/05 00:34:40;;;;;;;15.30;6.00;;;11.80;99.90;;;;;;5073488;28;20443;-55
2024/02/05 00:37:08;;;;;;;16.90;4.43;;;11.80;99.90;;;;;;5073278;28;20436;-56
2024/02/05 00:39:36;;;;;;;20.87;6.13;;;11.80;99.90;;;;;;5073316;28;20447;-55
2024/02/05 00:42:03;;;;;;;19.93;5.00;;;11.80;99.90;;;;;;5073288;28;20927;-55
2024/02/05 00:44:30;;;;;;;15.63;5.17;;;11.80;99.90;;;;;;5073390;28;20485;-55
2024/02/05 00:46:57;;;;;;;17.33;6.07;;;11.80;99.90;;;;;;5073371;28;20855;-55
2024/02/05 00:49:24;;;;;;;21.23;5.77;;;11.80;99.90;;;;;;5073298;28;20824;-55
2024/02/05 00:51:50;;;;;;;27.40;6.30;;;11.80;99.90;;;;;;5073212;28;20794;-55
2024/02/05 00:54:17;;;;;;;13.70;5.63;;;11.80;99.90;;;;;;5073021;28;20895;-55
2024/02/05 00:56:46;;;;;;;16.63;5.70;;;11.80;99.90;;;;;;5072557;28;20464;-56
2024/02/05 00:59:12;;;;;;;17.43;4.80;;;11.80;99.90;;;;;;5073941;28;20448;-55
2024/02/05 01:01:43;;;;;;;13.60;5.53;;;11.70;99.90;;;;;;5073422;28;20447;-54
2024/02/05 01:04:10;;;;;;;14.93;5.70;;;11.80;99.90;;;;;;5073193;28;20465;-55
2024/02/05 01:06:36;;;;;;;17.73;5.93;;;11.80;99.90;;;;;;5073284;28;20549;-54
2024/02/05 01:09:08;;;;;;;16.50;5.03;;;11.80;99.90;;;;;;5072920;28;20981;-54
2024/02/05 01:11:35;;;;;;;20.87;4.73;;;11.80;99.90;;;;;;5073498;28;20421;-55
2024/02/05 01:14:04;;;;;;;15.50;4.90;;;11.80;99.90;;;;;;5074141;28;20437;-55
2024/02/05 01:16:31;;;;;;;12.07;4.60;;;11.80;99.90;;;;;;5073371;28;20464;-55
2024/02/05 01:18:57;;;;;;;16.13;5.47;;;11.80;99.90;;;;;;5073194;28;20453;-54
2024/02/05 01:21:24;;;;;;;20.77;5.70;;;11.80;99.90;;;;;;5076621;28;20443;-55
2024/02/05 01:23:51;;;;;;;16.03;5.20;;;11.80;99.90;;;;;;5077688;28;20480;-55
2024/02/05 01:26:18;;;;;;;18.60;5.50;;;11.80;99.90;;;;;;5077326;28;20464;-55
2024/02/05 01:28:44;;;;;;;19.70;6.23;;;11.80;99.90;;;;;;5077514;28;20450;-55
2024/02/05 01:31:12;;;;;;;18.70;5.53;;;11.80;99.90;;;;;;5077236;28;20809;-54
2024/02/05 01:33:41;;;;;;;20.43;5.10;;;11.80;99.90;;;;;;5076682;28;20814;-55
2024/02/05 01:36:07;;;;;;;15.27;5.40;;;11.80;99.90;;;;;;5076925;28;20468;-55
2024/02/05 01:38:34;;;;;;;22.30;6.07;;;11.80;99.90;;;;;;5076999;28;20459;-55
2024/02/05 01:41:01;;;;;;;15.70;4.90;;;11.80;99.90;;;;;;5076779;28;20448;-55
2024/02/05 01:43:28;;;;;;;23.87;7.70;;;11.80;99.90;;;;;;5076915;28;20506;-55
2024/02/05 01:45:54;;;;;;;20.17;5.97;;;11.80;99.90;;;;;;5076502;28;20476;-54
2024/02/05 01:48:27;;;;;;;19.73;5.20;;;11.70;99.90;;;;;;5076683;28;20965;-54
2024/02/05 01:50:53;;;;;;;15.87;5.03;;;11.80;99.90;;;;;;5077001;28;20429;-55
2024/02/05 01:53:22;;;;;;;17.43;6.17;;;11.80;99.90;;;;;;5076580;28;20456;-55
2024/02/05 01:55:51;;;;;;;11.53;5.27;;;11.80;99.90;;;;;;5076783;28;20469;-54
2024/02/05 01:58:19;;;;;;;27.73;7.00;;;11.70;99.90;;;;;;5076651;28;20441;-55
2024/02/05 02:00:46;;;;;;;22.60;5.40;;;11.80;99.90;;;;;;5077612;28;20478;-55
2024/02/05 02:03:14;;;;;;;35.80;6.03;;;11.80;99.90;;;;;;5076846;28;20847;-55
2024/02/05 02:05:42;;;;;;;21.43;6.13;;;11.80;99.90;;;;;;5076606;28;21001;-55
2024/02/05 02:08:11;;;;;;;25.03;5.60;;;11.80;99.90;;;;;;5077437;28;20485;-54
2024/02/05 02:10:38;;;;;;;20.23;5.77;;;11.70;99.90;;;;;;5077517;28;20474;-54
2024/02/05 02:13:05;;;;;;;21.30;5.70;;;11.80;99.90;;;;;;5077967;28;20486;-55
2024/02/05 02:15:32;;;;;;;13.87;5.13;;;11.70;99.90;;;;;;5077696;28;20895;-55
2024/02/05 02:18:02;;;;;;;21.07;5.03;;;11.80;99.90;;;;;;5077274;28;20448;-54
2024/02/05 02:20:30;;;;;;;15.13;5.50;;;11.80;99.90;;;;;;5078002;28;20447;-55
2024/02/05 02:23:06;;;;;;;14.03;4.80;;;11.70;99.90;;;;;;5078692;28;20449;-55
2024/02/05 02:25:39;;;;;;;21.43;5.30;;;11.70;99.90;;;;;;5078620;28;20471;-54
2024/02/05 02:28:06;;;;;;;17.93;4.50;;;11.70;99.90;;;;;;5077287;28;20776;-55
2024/02/05 02:30:35;;;;;;;23.47;5.73;;;11.70;99.90;;;;;;5075063;28;20445;-55
2024/02/05 02:33:10;;;;;;;17.57;4.80;;;11.70;99.90;;;;;;5075953;28;20444;-55
2024/02/05 02:35:40;;;;;;;20.10;5.20;;;11.70;99.90;;;;;;5075338;28;21004;-54
2024/02/05 02:38:11;;;;;;;20.63;5.57;;;11.70;99.90;;;;;;5075878;28;20432;-54
2024/02/05 02:40:41;;;;;;;22.80;5.43;;;11.70;99.90;;;;;;5075663;28;20428;-54
2024/02/05 02:43:09;;;;;;;16.23;5.40;;;11.70;99.90;;;;;;5075451;28;20436;-55
2024/02/05 02:45:37;;;;;;;18.63;5.50;;;11.70;99.90;;;;;;5075591;28;20525;-55
2024/02/05 02:48:04;;;;;;;28.03;6.30;;;11.70;99.90;;;;;;5075185;28;20965;-54
2024/02/05 02:50:30;;;;;;;19.60;5.20;;;11.70;99.90;;;;;;5075361;28;20444;-54
2024/02/05 02:52:57;;;;;;;12.07;5.57;;;11.70;99.90;;;;;;5074983;28;20452;-55
2024/02/05 02:55:24;;;;;;;21.70;6.40;;;11.70;99.90;;;;;;5075223;28;20467;-55
2024/02/05 02:57:52;;;;;;;25.60;5.90;;;11.70;99.90;;;;;;5075214;28;20463;-54
2024/02/05 03:00:19;;;;;;;22.63;5.13;;;11.70;99.90;;;;;;5075090;28;20445;-54
2024/02/05 03:02:46;;;;;;;21.77;6.50;;;11.70;99.90;;;;;;5075215;28;20472;-54
2024/02/05 03:05:13;;;;;;;17.17;6.23;;;11.70;99.90;;;;;;5074980;28;20480;-55
2024/02/05 03:07:39;;;;;;;25.70;7.27;;;11.70;99.90;;;;;;5075093;28;20452;-55
2024/02/05 03:10:07;;;;;;;25.23;5.80;;;11.80;99.90;;;;;;5074688;28;20938;-54
2024/02/05 03:12:34;;;;;;;16.90;5.20;;;11.70;99.90;;;;;;5074921;28;20527;-55
2024/02/05 03:15:02;;;;;;;22.50;6.40;;;11.70;99.90;;;;;;5074784;28;20464;-55
2024/02/05 03:17:29;;;;;;;23.00;5.10;;;11.70;99.90;;;;;;5074606;28;20835;-54
2024/02/05 03:19:56;;;;;;;19.37;4.63;;;11.70;99.90;;;;;;5074602;28;20440;-55
2024/02/05 03:22:23;;;;;;;19.93;6.20;;;11.70;99.90;;;;;;5074852;28;20819;-55
2024/02/05 03:24:50;;;;;;;23.23;5.30;;;11.70;99.90;;;;;;5074556;28;20487;-54
2024/02/05 03:27:17;;;;;;;17.60;4.90;;;11.60;99.90;;;;;;5074639;28;20448;-55
2024/02/05 03:29:44;;;;;;;23.93;7.10;;;11.70;99.90;;;;;;5074355;28;20460;-54
2024/02/05 03:32:12;;;;;;;25.77;5.53;;;11.60;99.90;;;;;;5074511;28;20452;-54
2024/02/05 03:34:38;;;;;;;18.47;6.00;;;11.70;99.90;;;;;;5074703;28;20443;-54
2024/02/05 03:37:06;;;;;;;27.13;7.40;;;11.60;99.90;;;;;;5074421;28;20445;-54
2024/02/05 03:39:32;;;;;;;21.10;6.30;;;11.70;99.90;;;;;;5074619;28;20444;-54
2024/02/05 03:41:59;;;;;;;22.00;7.13;;;11.60;99.90;;;;;;5074003;28;20448;-55
2024/02/05 03:44:26;;;;;;;15.73;4.83;;;11.70;99.90;;;;;;5073744;28;20479;-55
2024/02/05 03:46:53;;;;;;;19.43;5.20;;;11.70;99.90;;;;;;5074241;28;20545;-55
2024/02/05 03:49:21;;;;;;;17.53;5.50;;;11.60;99.90;;;;;;5074504;28;20444;-55
2024/02/05 03:51:48;;;;;;;29.47;7.33;;;11.60;99.90;;;;;;5073900;28;20440;-55
2024/02/05 03:54:14;;;;;;;22.13;5.93;;;11.60;99.90;;;;;;5074378;28;20414;-55
2024/02/05 03:56:42;;;;;;;27.60;6.30;;;11.60;99.90;;;;;;5073658;28;20471;-55
2024/02/05 03:59:10;;;;;;;17.30;5.60;;;11.60;99.90;;;;;;5074041;28;20448;-54
2024/02/05 04:01:37;;;;;;;21.57;5.30;;;11.60;99.90;;;;;;5074069;28;20449;-54
2024/02/05 04:04:04;;;;;;;22.67;5.13;;;11.60;99.90;;;;;;5073902;28;20542;-54
2024/02/05 04:06:33;;;;;;;18.53;6.90;;;11.60;99.90;;;;;;5073987;28;20522;-55
2024/02/05 04:09:00;;;;;;;18.40;6.10;;;11.60;99.90;;;;;;5073712;28;20443;-55
2024/02/05 04:11:26;;;;;;;17.00;5.17;;;11.60;99.90;;;;;;5073757;28;20440;-55
2024/02/05 04:13:53;;;;;;;25.10;5.90;;;11.50;99.90;;;;;;5074226;28;20437;-55
2024/02/05 04:16:20;;;;;;;18.97;6.17;;;11.60;99.90;;;;;;5074648;28;20468;-55
2024/02/05 04:18:47;;;;;;;18.17;7.00;;;11.60;99.90;;;;;;5074144;28;20947;-55
2024/02/05 04:21:13;;;;;;;17.83;7.20;;;11.50;99.90;;;;;;5074167;28;20451;-54
2024/02/05 04:23:42;;;;;;;17.77;5.57;;;11.50;99.90;;;;;;5073814;28;20441;-55
2024/02/05 04:26:15;;;;;;;19.53;5.40;;;11.50;99.90;;;;;;5073840;28;20463;-54
2024/02/05 04:28:42;;;;;;;16.50;4.97;;;11.50;99.90;;;;;;5073706;28;20421;-55
2024/02/05 04:31:09;;;;;;;21.20;4.87;;;11.50;99.90;;;;;;5073264;28;20961;-54
2024/02/05 04:33:35;;;;;;;20.73;5.80;;;11.50;99.90;;;;;;5073319;28;20447;-55
2024/02/05 04:36:02;;;;;;;21.60;5.13;;;11.50;99.90;;;;;;5073578;28;20471;-55
2024/02/05 04:38:29;;;;;;;22.37;6.17;;;11.50;99.90;;;;;;5073952;28;20449;-54
2024/02/05 04:40:57;;;;;;;17.63;5.80;;;11.50;99.90;;;;;;5073520;28;20441;-54
2024/02/05 04:43:24;;;;;;;15.57;4.63;;;11.40;99.90;;;;;;5073530;28;20901;-54
2024/02/05 04:45:50;;;;;;;18.43;5.20;;;11.40;99.90;;;;;;5072983;28;20989;-54
2024/02/05 04:48:20;;;;;;;18.30;6.00;;;11.40;99.90;;;;;;5073402;28;20443;-54
2024/02/05 04:50:47;;;;;;;18.27;5.70;;;11.40;99.90;;;;;;5073157;28;20547;-55
2024/02/05 04:53:13;;;;;;;19.77;6.17;;;11.50;99.90;;;;;;5073176;28;20502;-55
2024/02/05 04:55:44;;;;;;;25.83;5.70;;;11.50;99.90;;;;;;5073098;28;20465;-54
2024/02/05 04:58:12;;;;;;;20.93;5.63;;;11.50;99.90;;;;;;5073418;28;20425;-54
2024/02/05 05:00:39;;;;;;;22.80;6.70;;;11.50;99.90;;;;;;5073004;28;20935;-54
2024/02/05 05:03:05;;;;;;;16.83;5.30;;;11.50;99.90;;;;;;5073362;28;20445;-55
2024/02/05 05:05:32;;;;;;;18.97;5.60;;;11.50;99.90;;;;;;5073282;28;20522;-54
2024/02/05 05:07:59;;;;;;;23.53;6.27;;;11.50;99.90;;;;;;5073158;28;20471;-55
2024/02/05 05:10:26;;;;;;;18.70;5.70;;;11.50;99.90;;;;;;5073303;28;20437;-55
2024/02/05 05:12:52;;;;;;;19.57;5.30;;;11.40;99.90;;;;;;5073215;28;20440;-54
2024/02/05 05:15:21;;;;;;;24.93;7.00;;;11.40;99.90;;;;;;5073090;28;20547;-55
2024/02/05 05:17:47;;;;;;;15.07;5.67;;;11.40;99.90;;;;;;5073105;28;20476;-54
2024/02/05 05:20:14;;;;;;;21.43;6.10;;;11.40;99.90;;;;;;5073136;28;20456;-54
2024/02/05 05:22:41;;;;;;;20.07;5.70;;;11.40;99.90;;;;;;5072916;28;20433;-55
2024/02/05 05:25:09;;;;;;;28.23;7.60;;;11.40;99.90;;;;;;5072672;28;20488;-55
2024/02/05 05:27:35;;;;;;;28.13;6.00;;;11.30;99.90;;;;;;5073025;28;20464;-54
2024/02/05 05:30:02;;;;;;;31.17;7.00;;;11.30;99.90;;;;;;5072662;28;20927;-55
2024/02/05 05:32:30;;;;;;;14.50;4.43;;;11.30;99.90;;;;;;5072623;28;20506;-54
2024/02/05 05:34:57;;;;;;;18.57;5.70;;;11.30;99.90;;;;;;5072932;28;20445;-55
2024/02/05 05:37:24;;;;;;;25.70;6.03;;;11.30;99.90;;;;;;5072963;28;20852;-54
2024/02/05 05:39:51;;;;;;;24.87;5.97;;;11.30;99.90;;;;;;5072593;28;20977;-54
2024/02/05 05:42:18;;;;;;;12.60;5.57;;;11.30;99.90;;;;;;5072976;28;20900;-56
2024/02/05 05:44:45;;;;;;;10.73;5.80;;;11.30;99.90;;;;;;5072931;28;20476;-56
2024/02/05 05:47:11;;;;;;;27.87;6.27;;;11.30;99.90;;;;;;5073051;28;20444;-55
2024/02/05 05:49:39;;;;;;;25.53;7.33;;;11.30;99.90;;;;;;5072814;28;20453;-55
2024/02/05 05:52:06;;;;;;;23.37;5.40;;;11.20;99.90;;;;;;5072615;28;20467;-55
2024/02/05 05:54:33;;;;;;;19.83;5.90;;;11.20;99.90;;;;;;5073056;28;20429;-55
2024/02/05 05:57:00;;;;;;;15.27;4.80;;;11.20;99.90;;;;;;5072734;28;20469;-55
2024/02/05 05:59:27;;;;;;;21.20;6.13;;;11.20;99.90;;;;;;5072743;28;20479;-55
2024/02/05 06:01:54;;;;;;;16.67;6.83;;;11.20;99.90;;;;;;5072845;28;20441;-55
2024/02/05 06:04:21;;;;;;;18.27;5.77;;;11.20;99.90;;;;;;5072832;28;20484;-55
2024/02/05 06:06:49;;;;;;;23.43;5.67;;;11.20;99.90;;;;;;5074653;28;20460;-55
2024/02/05 06:09:18;;;;;;;19.87;5.47;;;11.20;99.90;;;;;;5076231;28;20437;-55
2024/02/05 06:11:46;;;;;;;23.70;5.50;;;11.20;99.90;;;;;;5076014;28;20453;-55
2024/02/05 06:14:13;;;;;;;23.03;5.00;;;11.20;99.90;;;;;;5076096;28;20490;-55
2024/02/05 06:16:39;;;;;;;15.67;5.90;;;11.20;99.90;;;;;;5075644;28;20982;-55
2024/02/05 06:19:06;;;;;;;17.37;5.37;;;11.20;99.90;;;;;;5075746;28;20939;-55
2024/02/05 06:21:33;;;;;;;22.70;6.30;;;11.10;99.90;;;;;;5075904;28;20443;-55
2024/02/05 06:24:01;;;;;;;20.20;6.00;;;11.10;99.90;;;;;;5076236;28;20452;-55
2024/02/05 06:26:28;;;;;;;23.13;7.00;;;11.10;99.90;;;;;;5075643;28;20483;-55
2024/02/05 06:28:54;;;;;;;16.90;5.23;;;11.10;99.90;;;;;;5075859;28;20794;-56
2024/02/05 06:31:21;;;;;;;22.00;5.67;;;11.10;99.90;;;;;;5076016;28;20437;-55
2024/02/05 06:33:48;;;;;;;19.93;5.13;;;11.10;99.90;;;;;;5075808;28;20820;-55
2024/02/05 06:36:15;;;;;;;19.03;5.07;;;11.10;99.90;;;;;;5075670;28;20461;-55
2024/02/05 06:38:42;;;;;;;19.97;6.60;;;11.00;99.90;;;;;;5075645;28;20451;-55
2024/02/05 06:41:10;;;;;;;23.00;5.97;;;11.00;99.90;;;;;;5075310;28;20444;-55
2024/02/05 06:43:39;;;;;;;30.20;6.00;;;11.00;99.90;;;;;;5075589;28;20448;-55
2024/02/05 06:46:06;;;;;;;21.00;5.30;;;11.00;99.90;;;;;;5075104;28;20850;-55
2024/02/05 06:48:34;;;;;;;18.30;5.73;;;11.00;99.90;;;;;;5075779;28;20436;-55
2024/02/05 06:51:01;;;;;;;17.10;4.97;;;11.00;99.90;;;;;;5075398;28;20445;-55
2024/02/05 06:53:28;;;;;;;22.77;5.47;;;11.00;99.90;;;;;;5075018;28;20456;-55
2024/02/05 06:55:55;;;;;;;17.77;6.20;;;11.00;99.90;;;;;;5075014;28;20963;-55
2024/02/05 06:58:23;;;;;;;12.90;4.83;;;10.90;99.90;;;;;;5074980;28;20931;-55
2024/02/05 07:00:49;;;;;;;27.70;6.60;;;11.00;99.90;;;;;;5074972;28;20969;-55
2024/02/05 07:03:16;;;;;;;9.67;4.50;;;11.00;99.90;;;;;;5075190;28;20445;-55
2024/02/05 07:05:43;;;;;;;13.23;5.57;;;10.90;99.90;;;;;;5075064;28;20853;-55
2024/02/05 07:08:10;;;;;;;20.77;5.93;;;11.00;99.90;;;;;;5074962;28;20976;-55
2024/02/05 07:10:37;;;;;;;18.60;5.60;;;10.90;99.90;;;;;;5075206;28;20449;-55
2024/02/05 07:13:03;;;;;;;16.00;5.30;;;10.90;99.90;;;;;;5074892;28;20444;-55
2024/02/05 07:15:34;;;;;;;22.90;5.40;;;10.90;99.90;;;;;;5074891;28;20822;-55
2024/02/05 07:18:00;;;;;;;17.77;5.27;;;10.90;99.90;;;;;;5074875;28;20498;-55
2024/02/05 07:20:27;;;;;;;16.93;5.83;;;10.90;99.90;;;;;;5074865;28;20452;-55
2024/02/05 07:22:54;;;;;;;19.37;5.10;;;10.90;99.90;;;;;;5074855;28;20436;-55
2024/02/05 07:25:21;;;;;;;22.13;6.03;;;10.90;99.90;;;;;;5074881;28;20549;-56
2024/02/05 07:27:48;;;;;;;16.30;5.17;;;10.90;99.90;;;;;;5075420;28;20441;-56
2024/02/05 07:30:15;;;;;;;23.67;5.73;;;10.90;99.90;;;;;;5074803;28;20445;-55
2024/02/05 07:32:44;;;;;;;19.40;5.60;;;10.90;99.90;;;;;;5074700;28;20440;-55
2024/02/05 07:35:11;;;;;;;16.60;5.40;;;10.90;99.90;;;;;;5074789;28;20518;-55
2024/02/05 07:37:37;;;;;;;15.57;5.20;;;10.90;99.90;;;;;;5074709;28;20440;-56
2024/02/05 07:40:05;;;;;;;16.30;6.63;;;10.90;99.90;;;;;;5074486;28;20433;-55
2024/02/05 07:42:32;;;;;;;17.67;5.80;;;10.90;99.90;;;;;;5074515;28;20452;-55
2024/02/05 07:44:58;;;;;;;19.73;4.87;;;10.90;99.90;;;;;;5073907;28;20994;-55
2024/02/05 07:47:25;;;;;;;18.90;5.43;;;10.90;99.90;;;;;;5074248;28;20440;-55
2024/02/05 07:49:54;;;;;;;29.03;5.60;;;10.90;99.90;;;;;;5074286;28;20448;-55
2024/02/05 07:52:21;;;;;;;34.73;5.23;;;10.80;99.90;;;;;;5073694;28;20842;-55
2024/02/05 07:54:47;;;;;;;18.00;5.33;;;10.90;99.90;;;;;;5074024;28;20441;-55
2024/02/05 07:57:14;;;;;;;16.53;5.30;;;10.80;99.90;;;;;;5074134;28;20444;-55
2024/02/05 07:59:41;;;;;;;17.77;5.47;;;10.80;99.90;;;;;;5074088;28;20448;-55
2024/02/05 08:02:09;;;;;;;16.40;4.70;;;10.90;99.90;;;;;;5074095;28;20441;-55
2024/02/05 08:04:35;;;;;;;18.47;6.30;;;10.80;99.90;;;;;;5073976;28;20474;-55
2024/02/05 08:07:04;;;;;;;27.67;4.97;;;10.90;99.90;;;;;;5073802;28;20467;-55
2024/02/05 08:09:32;;;;;;;22.43;5.93;;;10.90;99.90;;;;;;5074049;28;20441;-55
2024/02/05 08:11:59;;;;;;;15.53;5.60;;;10.90;99.90;;;;;;5073731;28;20448;-55
2024/02/05 08:14:25;;;;;;;18.13;5.20;;;10.90;99.90;;;;;;5073879;28;20445;-55
2024/02/05 08:16:54;;;;;;;17.10;4.97;;;10.90;99.90;;;;;;5073739;28;20555;-55
2024/02/05 08:19:20;;;;;;;15.40;5.73;;;10.90;99.90;;;;;;5073491;28;20960;-55
2024/02/05 08:21:47;;;;;;;21.50;5.43;;;10.90;99.90;;;;;;5073777;28;20445;-55
2024/02/05 08:24:16;;;;;;;15.07;5.23;;;11.00;99.90;;;;;;5073429;28;20440;-55
2024/02/05 08:26:43;;;;;;;23.70;6.40;;;11.00;99.90;;;;;;5073208;28;20491;-55
2024/02/05 08:29:10;;;;;;;17.60;4.40;;;10.90;99.90;;;;;;5073068;28;20445;-55
2024/02/05 08:31:37;;;;;;;20.47;5.07;;;10.90;99.90;;;;;;5073428;28;20452;-55
2024/02/05 08:34:04;;;;;;;22.93;5.57;;;10.90;99.90;;;;;;5073205;28;20940;-55
2024/02/05 08:36:31;;;;;;;12.77;5.10;;;10.90;99.90;;;;;;5073448;28;20452;-55
2024/02/05 08:38:58;;;;;;;29.63;5.83;;;11.00;99.90;;;;;;5073547;28;20445;-55
2024/02/05 08:41:26;;;;;;;12.60;5.40;;;10.90;99.90;;;;;;5073558;28;20449;-55
2024/02/05 08:43:53;;;;;;;15.87;5.00;;;10.90;99.90;;;;;;5073578;28;20785;-55
2024/02/05 08:46:19;;;;;;;18.13;4.47;;;11.00;99.90;;;;;;5073037;28;20480;-55
2024/02/05 08:48:46;;;;;;;15.67;4.67;;;11.00;99.90;;;;;;5073496;28;20440;-55
2024/02/05 08:51:13;;;;;;;17.87;4.53;;;11.00;99.90;;;;;;5072975;28;21019;-55
2024/02/05 08:53:40;;;;;;;22.60;4.67;;;11.00;99.90;;;;;;5073121;28;20946;-55
2024/02/05 08:56:08;;;;;;;20.53;4.90;;;11.00;99.90;;;;;;5073246;28;20453;-55
2024/02/05 08:58:36;;;;;;;32.63;6.10;;;11.00;99.90;;;;;;5073257;28;20440;-55
2024/02/05 09:01:03;;;;;;;14.67;5.63;;;11.00;99.90;;;;;;5073228;28;20459;-55
2024/02/05 09:03:30;;;;;;;22.00;4.97;;;11.10;99.90;;;;;;5073223;28;20555;-55
2024/02/05 09:05:57;;;;;;;17.33;4.97;;;11.10;99.90;;;;;;5073154;28;20488;-55
2024/02/05 09:08:24;;;;;;;18.87;5.20;;;11.20;99.90;;;;;;5073387;28;20452;-55
2024/02/05 09:10:51;;;;;;;15.50;4.30;;;11.20;99.90;;;;;;5072864;28;20935;-55
2024/02/05 09:13:18;;;;;;;13.80;5.10;;;11.30;99.90;;;;;;5073135;28;20497;-55
2024/02/05 09:15:46;;;;;;;20.73;5.13;;;11.30;99.90;;;;;;5073124;28;20475;-55
2024/02/05 09:18:13;;;;;;;16.60;5.07;;;11.30;99.90;;;;;;5072997;28;20445;-55
2024/02/05 09:20:41;;;;;;;15.87;4.83;;;11.20;99.90;;;;;;5072890;28;20441;-55
2024/02/05 09:23:08;;;;;;;16.40;5.43;;;11.30;99.90;;;;;;5073153;28;20539;-55
2024/02/05 09:25:35;;;;;;;21.63;7.07;;;11.40;99.90;;;;;;5073062;28;20491;-55
2024/02/05 09:28:02;;;;;;;18.37;4.90;;;11.40;99.90;;;;;;5072923;28;20806;-55
2024/02/05 09:30:29;;;;;;;25.73;7.47;;;11.50;99.90;;;;;;5074088;28;20446;-55
2024/02/05 09:32:57;;;;;;;19.57;5.30;;;11.50;99.90;;;;;;5073043;28;20455;-55
2024/02/05 09:35:24;;;;;;;19.77;5.30;;;11.50;99.90;;;;;;5073084;28;20464;-55
2024/02/05 09:37:51;;;;;;;21.20;5.77;;;11.50;99.90;;;;;;5073211;28;20448;-56
2024/02/05 09:40:18;;;;;;;17.17;5.13;;;11.50;99.90;;;;;;5073089;28;20440;-55
2024/02/05 09:42:45;;;;;;;25.43;7.50;;;11.50;99.90;;;;;;5077011;28;20451;-55
2024/02/05 09:45:13;;;;;;;18.70;5.50;;;11.60;99.90;;;;;;5076884;28;20475;-55
2024/02/05 09:47:41;;;;;;;19.23;5.40;;;11.60;99.90;;;;;;5077349;28;20449;-56
2024/02/05 09:50:12;;;;;;;25.13;6.13;;;11.70;99.90;;;;;;5077814;28;20869;-55
2024/02/05 09:52:41;;;;;;;17.10;4.90;;;11.70;99.90;;;;;;5077256;28;20522;-55
2024/02/05 09:55:11;;;;;;;19.13;5.20;;;11.60;99.90;;;;;;5077705;28;20567;-55
2024/02/05 09:57:38;;;;;;;12.00;4.97;;;11.70;99.90;;;;;;5077228;28;20440;-56
2024/02/05 10:00:09;;;;;;;11.13;5.00;;;11.70;99.90;;;;;;5076531;28;20812;-56
2024/02/05 10:02:37;;;;;;;17.37;4.47;;;11.70;99.90;;;;;;5076419;28;20903;-55
2024/02/05 10:05:07;;;;;;;17.10;5.30;;;11.80;99.90;;;;;;5076438;28;20821;-55
2024/02/05 10:07:36;;;;;;;18.43;5.23;;;11.80;99.90;;;;;;5076232;28;20904;-56
2024/02/05 10:10:04;;;;;;;31.47;6.40;;;11.90;99.90;;;;;;5076480;28;20436;-55
2024/02/05 10:12:34;;;;;;;31.43;6.47;;;11.90;99.90;;;;;;5075677;28;20455;-55
2024/02/05 10:15:02;;;;;;;27.50;5.57;;;11.90;99.90;;;;;;5076108;28;20448;-55
2024/02/05 10:17:28;;;;;;;19.63;5.50;;;11.90;99.90;;;;;;5075967;28;20432;-55
2024/02/05 10:19:56;;;;;;;20.73;6.10;;;11.90;99.90;;;;;;5075836;28;20809;-55
2024/02/05 10:22:23;;;;;;;21.60;4.93;;;11.90;99.90;;;;;;5076273;28;20795;-55
2024/02/05 10:24:51;;;;;;;15.47;5.07;;;11.90;99.90;;;;;;5076200;28;20445;-55
2024/02/05 10:27:19;;;;;;;16.00;4.57;;;11.90;99.90;;;;;;5075861;28;20487;-55
2024/02/05 10:29:46;;;;;;;15.83;5.93;;;11.90;99.90;;;;;;5075904;28;20453;-55
2024/02/05 10:32:20;;;;;;;20.67;4.83;;;12.00;99.90;;;;;;5075947;28;20448;-55
2024/02/05 10:34:51;;;;;;;14.13;5.03;;;12.00;99.90;;;;;;5075959;28;20435;-55
2024/02/05 10:37:22;;;;;;;23.30;5.60;;;12.00;99.90;;;;;;5076570;28;20421;-55
2024/02/05 10:39:49;;;;;;;24.27;5.77;;;12.10;99.90;;;;;;5077066;28;20432;-55
2024/02/05 10:42:17;;;;;;;25.43;8.00;;;12.20;99.90;;;;;;5075954;28;20934;-55
2024/02/05 10:44:44;;;;;;;14.20;5.20;;;12.20;99.90;;;;;;5075829;28;20436;-55
2024/02/05 10:47:11;;;;;;;17.57;4.93;;;12.30;99.90;;;;;;5075653;28;20488;-55
2024/02/05 10:49:39;;;;;;;22.83;5.80;;;12.40;99.90;;;;;;5075624;28;20880;-55
2024/02/05 10:52:06;;;;;;;16.37;4.60;;;12.40;99.90;;;;;;5074948;28;20452;-55
2024/02/05 10:54:33;;;;;;;17.03;5.80;;;12.40;99.90;;;;;;5075357;28;20883;-55
2024/02/05 10:57:01;;;;;;;18.10;5.73;;;12.40;99.90;;;;;;5075492;28;20457;-55
2024/02/05 10:59:29;;;;;;;14.13;4.67;;;12.40;99.90;;;;;;5075395;28;20486;-55
2024/02/05 11:02:02;;;;;;;19.87;5.77;;;12.40;99.90;;;;;;5075118;28;20448;-55
2024/02/05 11:04:31;;;;;;;14.57;4.40;;;12.50;99.90;;;;;;5075324;28;20439;-55
2024/02/05 11:07:01;;;;;;;28.37;6.73;;;12.70;99.90;;;;;;5075351;28;20530;-56
2024/02/05 11:09:30;;;;;;;19.47;4.47;;;12.80;99.90;;;;;;5075802;28;20416;-55
2024/02/05 11:12:01;;;;;;;13.10;5.10;;;13.00;99.90;;;;;;5075170;28;20437;-55
2024/02/05 11:14:33;;;;;;;18.47;7.47;;;13.00;99.90;;;;;;5075086;28;20520;-55
2024/02/05 11:17:01;;;;;;;12.57;5.57;;;13.00;99.90;;;;;;5075021;28;20492;-55
2024/02/05 11:19:30;;;;;;;11.90;4.87;;;13.10;99.90;;;;;;5075146;28;20450;-55
2024/02/05 11:21:59;;;;;;;15.90;4.50;;;13.10;99.90;;;;;;5075195;28;20484;-55
2024/02/05 11:24:27;;;;;;;13.60;3.73;;;13.00;99.90;;;;;;5075199;28;20433;-55
2024/02/05 11:26:55;;;;;;;15.13;4.93;;;12.90;99.90;;;;;;5074811;28;20489;-55
2024/02/05 11:29:23;;;;;;;17.27;4.50;;;12.70;99.90;;;;;;5074760;28;20451;-55
2024/02/05 11:31:52;;;;;;;20.43;5.90;;;12.80;99.90;;;;;;5074765;28;20451;-55
2024/02/05 11:34:20;;;;;;;17.73;4.77;;;12.90;99.90;;;;;;5074621;28;20443;-55
2024/02/05 11:36:47;;;;;;;20.97;5.23;;;13.00;99.90;;;;;;5074472;28;21004;-55
2024/02/05 11:39:17;;;;;;;17.40;4.67;;;13.10;99.90;;;;;;5074644;28;20451;-55
2024/02/05 11:41:43;;;;;;;17.00;4.23;;;13.20;99.90;;;;;;5074668;28;20447;-55
2024/02/05 11:44:12;;;;;;;16.33;4.50;;;13.30;99.40;;;;;;5074592;28;20441;-55
2024/02/05 11:46:39;;;;;;;15.00;4.60;;;13.30;99.60;;;;;;5074228;28;20488;-55
2024/02/05 11:49:07;;;;;;;9.20;4.27;;;13.20;99.50;;;;;;5074347;28;20447;-55
2024/02/05 11:51:34;;;;;;;13.63;4.93;;;13.10;99.90;;;;;;5074287;28;20436;-55
2024/02/05 11:54:01;;;;;;;20.37;4.20;;;13.20;99.90;;;;;;5073695;28;21056;-55
2024/02/05 11:56:28;;;;;;;19.67;3.90;;;13.30;99.90;;;;;;5074023;28;20457;-55
2024/02/05 11:58:54;;;;;;;14.50;4.77;;;13.40;99.90;;;;;;5074261;28;21011;-55
2024/02/05 12:01:22;;;;;;;14.00;4.30;;;13.60;99.90;;;;;;5074080;28;20452;-55
2024/02/05 12:03:50;;;;;;;17.60;4.23;;;13.90;99.00;;;;;;5073000;28;20822;-55
2024/02/05 12:06:21;;;;;;;22.70;4.30;;;13.90;97.80;;;;;;5073800;28;20491;-55
2024/02/05 12:08:47;;;;;;;12.90;3.87;;;13.70;98.50;;;;;;5073691;28;20448;-55
2024/02/05 12:11:15;;;;;;;19.90;5.23;;;13.40;99.10;;;;;;5073639;28;20935;-55
2024/02/05 12:13:41;;;;;;;21.03;4.07;;;13.50;99.70;;;;;;5073693;28;20447;-55
2024/02/05 12:16:09;;;;;;;18.73;4.43;;;13.70;99.20;;;;;;5073545;28;20465;-56
2024/02/05 12:18:36;;;;;;;17.30;4.40;;;13.90;97.80;;;;;;5073451;28;20957;-55
2024/02/05 12:21:04;;;;;;;14.73;4.63;;;14.00;97.80;;;;;;5074044;28;20445;-55
2024/02/05 12:23:33;;;;;;;18.87;5.60;;;14.10;97.20;;;;;;5073702;28;20452;-55
2024/02/05 12:26:01;;;;;;;15.53;4.87;;;14.20;97.20;;;;;;5073563;28;20829;-55
2024/02/05 12:28:29;;;;;;;12.77;4.43;;;14.10;96.50;;;;;;5073341;28;20939;-55
2024/02/05 12:30:56;;;;;;;16.30;5.13;;;13.80;97.80;;;;;;5073588;28;20445;-55
2024/02/05 12:33:23;;;;;;;7.77;4.13;;;13.50;98.00;;;;;;5073911;28;20440;-55
2024/02/05 12:35:58;;;;;;;14.17;4.20;;;13.20;98.30;;;;;;5073492;28;20460;-55
2024/02/05 12:38:25;;;;;;;19.53;6.03;;;13.00;98.60;;;;;;5073524;28;20436;-55